Time;durP1;ratioP1;P1;durP2;ratioP2;P2;SDS_P1;SDS_P2;PMS_P1;PMS_P2;Temp;Humidity;BMP_temperature;BMP_pressure;BME280_temperature;BME280_humidity;BME280_pressure;Samples;Min_cycle;Max_cycle;Signal;HPM_P1;HPM_P2
2023/12/22 00:00:29;;;;;;;2.70;1.00;;;6.10;99.90;;;;;;5006414;28;20512;-84
2023/12/22 00:02:54;;;;;;;1.50;1.03;;;6.00;99.90;;;;;;5006441;28;20041;-84
2023/12/22 00:05:20;;;;;;;3.70;1.13;;;6.10;99.90;;;;;;5007574;28;20034;-84
2023/12/22 00:07:45;;;;;;;3.20;1.03;;;6.20;99.90;;;;;;5008170;28;20037;-85
2023/12/22 00:10:11;;;;;;;1.80;0.90;;;6.20;99.90;;;;;;5007148;28;20032;-85
2023/12/22 00:12:38;;;;;;;1.50;1.17;;;6.50;99.90;;;;;;5007072;28;20034;-84
2023/12/22 00:15:04;;;;;;;2.03;0.70;;;6.00;99.90;;;;;;4988423;28;20057;-87
2023/12/22 00:17:30;;;;;;;0.50;0.50;;;5.10;99.90;;;;;;5009128;28;20026;-85
2023/12/22 00:19:58;;;;;;;1.00;0.60;;;4.50;99.90;;;;;;5010043;28;20030;-87
2023/12/22 00:22:25;;;;;;;0.50;0.50;;;3.90;99.90;;;;;;5008339;28;20022;-85
2023/12/22 00:24:51;;;;;;;2.57;1.03;;;3.40;99.90;;;;;;5007563;28;20093;-85
2023/12/22 00:27:16;;;;;;;0.50;0.50;;;3.10;99.90;;;;;;5006825;28;20090;-85
2023/12/22 00:29:42;;;;;;;4.20;0.70;;;2.90;99.90;;;;;;5007653;28;20026;-86
2023/12/22 00:32:09;;;;;;;0.63;0.63;;;2.70;99.90;;;;;;5007080;28;20120;-86
2023/12/22 00:34:35;;;;;;;0.70;0.70;;;2.50;99.90;;;;;;5006034;28;20052;-87
2023/12/22 00:37:00;;;;;;;0.50;0.50;;;2.40;99.90;;;;;;5003996;28;20425;-86
2023/12/22 00:39:26;;;;;;;2.17;0.70;;;2.40;99.90;;;;;;5005299;28;20039;-85
2023/12/22 00:41:52;;;;;;;0.97;0.70;;;2.30;99.90;;;;;;5004164;28;20151;-86
2023/12/22 00:44:17;;;;;;;0.60;0.60;;;2.30;99.90;;;;;;5004803;28;20041;-86
2023/12/22 00:46:43;;;;;;;0.93;0.70;;;2.30;99.90;;;;;;5002352;28;20026;-85
2023/12/22 00:49:08;;;;;;;0.53;0.53;;;2.20;99.90;;;;;;5006276;28;20029;-87
2023/12/22 00:51:34;;;;;;;1.47;0.60;;;2.30;99.90;;;;;;5005085;28;20081;-85
2023/12/22 00:53:59;;;;;;;2.73;0.70;;;2.30;99.90;;;;;;5003095;28;20599;-84
2023/12/22 00:56:25;;;;;;;1.23;0.80;;;2.30;99.90;;;;;;5002430;28;20034;-83
2023/12/22 00:58:50;;;;;;;1.83;0.70;;;2.30;99.90;;;;;;5003574;28;20513;-85
2023/12/22 01:01:16;;;;;;;1.67;0.80;;;2.30;99.90;;;;;;5002933;28;20172;-84
2023/12/22 01:03:41;;;;;;;2.00;0.70;;;2.40;99.90;;;;;;5001899;28;20038;-84
2023/12/22 01:06:07;;;;;;;3.10;0.90;;;2.50;99.90;;;;;;4985642;28;20139;-84
2023/12/22 01:08:32;;;;;;;0.97;0.70;;;2.40;99.90;;;;;;5003309;28;20048;-83
2023/12/22 01:10:58;;;;;;;0.70;0.70;;;2.40;99.90;;;;;;5001735;28;20057;-84
2023/12/22 01:13:24;;;;;;;2.10;1.33;;;2.50;99.90;;;;;;4984073;28;20034;-84
2023/12/22 01:15:49;;;;;;;2.13;0.73;;;2.50;99.90;;;;;;5001792;28;20026;-83
2023/12/22 01:18:15;;;;;;;1.30;0.90;;;2.50;99.90;;;;;;5000891;28;20124;-84
2023/12/22 01:20:40;;;;;;;1.40;0.80;;;2.50;99.90;;;;;;5000360;28;20033;-84
2023/12/22 01:23:06;;;;;;;1.60;0.83;;;2.50;99.90;;;;;;5002354;28;20078;-86
2023/12/22 01:25:31;;;;;;;1.27;0.77;;;2.50;99.90;;;;;;5003674;28;20493;-83
2023/12/22 01:27:57;;;;;;;1.63;0.90;;;2.50;99.90;;;;;;5006912;28;20185;-83
2023/12/22 01:30:22;;;;;;;1.23;0.70;;;2.50;99.90;;;;;;5002428;28;20112;-84
2023/12/22 01:32:48;;;;;;;0.70;0.60;;;2.40;99.90;;;;;;5007193;28;20614;-86
2023/12/22 01:35:14;;;;;;;5.77;1.03;;;2.30;99.90;;;;;;5004320;28;20038;-87
2023/12/22 01:37:39;;;;;;;1.47;0.80;;;2.30;99.90;;;;;;5004149;28;20030;-84
2023/12/22 01:40:06;;;;;;;0.80;0.70;;;2.20;99.90;;;;;;5001977;28;20038;-87
2023/12/22 01:42:31;;;;;;;2.70;0.90;;;2.20;99.90;;;;;;5002045;28;20037;-83
2023/12/22 01:44:57;;;;;;;0.83;0.80;;;2.10;99.90;;;;;;5002420;28;20041;-83
2023/12/22 01:47:22;;;;;;;1.80;0.90;;;2.00;99.90;;;;;;5001643;28;20766;-85
2023/12/22 01:49:48;;;;;;;1.87;0.80;;;2.00;99.90;;;;;;5002122;28;20042;-84
2023/12/22 01:52:15;;;;;;;1.93;0.80;;;1.90;99.90;;;;;;5001848;28;20034;-85
2023/12/22 01:54:40;;;;;;;1.33;0.70;;;1.80;99.90;;;;;;5000943;28;20041;-86
2023/12/22 01:57:06;;;;;;;1.77;0.87;;;1.70;99.90;;;;;;5003298;28;21383;-84
2023/12/22 01:59:34;;;;;;;0.73;0.73;;;1.70;99.90;;;;;;5002165;28;20163;-83
2023/12/22 02:02:01;;;;;;;0.70;0.70;;;1.60;99.90;;;;;;4985824;28;20708;-84
2023/12/22 02:04:29;;;;;;;1.23;0.80;;;1.60;99.90;;;;;;5003967;28;20033;-85
2023/12/22 02:06:56;;;;;;;2.77;0.97;;;1.50;99.90;;;;;;5004866;28;20030;-84
2023/12/22 02:09:22;;;;;;;2.40;0.80;;;1.50;99.90;;;;;;5004266;28;20038;-85
2023/12/22 02:11:47;;;;;;;5.50;0.90;;;1.50;99.90;;;;;;5001955;28;20038;-84
2023/12/22 02:14:13;;;;;;;1.67;0.87;;;1.50;99.90;;;;;;5002413;28;20042;-84
2023/12/22 02:16:46;;;;;;;1.37;0.80;;;1.40;99.90;;;;;;4984399;28;20037;-85
2023/12/22 02:19:39;;;;;;;0.80;0.60;;;1.30;99.90;;;;;;5002062;28;20104;-84
2023/12/22 02:22:06;;;;;;;1.67;0.70;;;1.30;99.90;;;;;;5000990;28;20965;-85
2023/12/22 02:24:32;;;;;;;0.77;0.60;;;1.20;99.90;;;;;;5002356;28;20034;-84
2023/12/22 02:27:14;;;;;;;0.93;0.70;;;1.20;99.90;;;;;;5003353;28;20036;-84
2023/12/22 02:29:50;;;;;;;1.70;0.77;;;1.20;99.90;;;;;;5006676;28;20431;-85
2023/12/22 02:32:24;;;;;;;0.90;0.70;;;1.20;99.90;;;;;;5006459;28;20033;-85
2023/12/22 02:34:53;;;;;;;0.85;0.70;;;1.20;99.90;;;;;;5007262;28;20057;-86
2023/12/22 02:37:21;;;;;;;0.60;0.60;;;1.20;99.90;;;;;;5008981;28;20029;-85
2023/12/22 02:39:47;;;;;;;0.83;0.60;;;1.30;99.90;;;;;;5006808;28;20045;-84
2023/12/22 02:42:13;;;;;;;1.13;0.60;;;1.30;99.90;;;;;;5007139;28;20037;-87
2023/12/22 02:44:39;;;;;;;0.70;0.70;;;1.30;99.90;;;;;;5008345;28;20089;-86
2023/12/22 02:47:04;;;;;;;0.63;0.60;;;1.30;99.90;;;;;;5007384;28;20098;-84
2023/12/22 02:49:30;;;;;;;0.50;0.50;;;1.40;99.90;;;;;;5008388;28;20034;-83
2023/12/22 02:51:55;;;;;;;0.80;0.57;;;1.40;99.90;;;;;;5005321;28;20343;-85
2023/12/22 02:54:21;;;;;;;0.90;0.50;;;1.50;99.90;;;;;;5007193;28;20033;-85
2023/12/22 02:56:47;;;;;;;0.60;0.60;;;1.50;99.90;;;;;;5006676;28;20038;-84
2023/12/22 02:59:13;;;;;;;0.83;0.60;;;1.50;99.90;;;;;;5007169;28;20029;-85
2023/12/22 03:01:38;;;;;;;0.73;0.60;;;1.50;99.90;;;;;;5007681;28;20044;-84
2023/12/22 03:04:04;;;;;;;1.13;0.60;;;1.60;99.90;;;;;;5007414;28;20068;-84
2023/12/22 03:06:29;;;;;;;0.63;0.50;;;1.60;99.90;;;;;;5006983;28;21011;-84
2023/12/22 03:08:55;;;;;;;0.60;0.60;;;1.70;99.90;;;;;;5006425;28;20493;-85
2023/12/22 03:11:20;;;;;;;0.97;0.60;;;1.70;99.90;;;;;;5008196;28;20041;-84
2023/12/22 03:13:46;;;;;;;0.50;0.50;;;1.70;99.90;;;;;;5006485;28;20038;-85
2023/12/22 03:16:11;;;;;;;0.90;0.60;;;1.70;99.90;;;;;;5004620;28;20054;-86
2023/12/22 03:18:40;;;;;;;0.53;0.53;;;1.70;99.90;;;;;;5004290;28;20696;-84
2023/12/22 03:21:05;;;;;;;0.40;0.40;;;1.80;99.90;;;;;;5006998;28;20034;-86
2023/12/22 03:23:31;;;;;;;1.30;0.70;;;1.80;99.90;;;;;;4987174;28;20033;-86
2023/12/22 03:25:56;;;;;;;0.50;0.50;;;1.80;99.90;;;;;;5006068;28;20038;-84
2023/12/22 03:28:22;;;;;;;1.37;0.80;;;1.80;99.90;;;;;;5003534;28;20088;-85
2023/12/22 03:30:47;;;;;;;0.80;0.63;;;1.80;99.90;;;;;;5004894;28;20045;-87
2023/12/22 03:33:13;;;;;;;0.60;0.60;;;1.80;99.90;;;;;;5004346;28;20885;-85
2023/12/22 03:35:38;;;;;;;3.53;0.87;;;1.80;99.90;;;;;;5002733;28;20037;-84
2023/12/22 03:38:04;;;;;;;0.60;0.60;;;1.90;99.90;;;;;;4986389;28;20151;-86
2023/12/22 03:40:30;;;;;;;0.60;0.60;;;1.90;99.90;;;;;;5003119;28;21548;-85
2023/12/22 03:42:55;;;;;;;1.77;0.80;;;1.90;99.90;;;;;;5005203;28;20049;-85
2023/12/22 03:45:21;;;;;;;1.63;0.67;;;2.00;99.90;;;;;;5006658;28;20045;-85
2023/12/22 03:47:46;;;;;;;1.33;0.80;;;2.10;99.90;;;;;;5010906;28;20639;-87
2023/12/22 03:50:12;;;;;;;1.40;0.90;;;2.10;99.90;;;;;;5011578;28;20030;-84
2023/12/22 03:52:37;;;;;;;2.03;1.00;;;2.30;99.90;;;;;;5010861;28;20045;-83
2023/12/22 03:55:03;;;;;;;3.73;1.13;;;2.40;99.90;;;;;;4985888;28;20042;-86
2023/12/22 03:57:29;;;;;;;2.20;1.03;;;2.60;99.90;;;;;;5004381;28;20049;-84
2023/12/22 03:59:54;;;;;;;1.10;0.80;;;2.80;99.90;;;;;;5002521;28;20142;-83
2023/12/22 04:02:20;;;;;;;4.40;1.13;;;3.00;99.90;;;;;;5002911;28;20038;-85
2023/12/22 04:04:46;;;;;;;3.40;0.90;;;3.20;99.90;;;;;;5004047;28;20050;-84
2023/12/22 04:07:12;;;;;;;3.13;1.00;;;3.40;99.90;;;;;;5000313;28;20026;-84
2023/12/22 04:09:40;;;;;;;1.67;0.77;;;3.50;99.90;;;;;;5002114;28;20046;-83
2023/12/22 04:12:06;;;;;;;2.87;0.80;;;3.70;99.90;;;;;;5001982;28;20034;-83
2023/12/22 04:14:31;;;;;;;2.03;0.77;;;3.80;99.90;;;;;;5002502;28;20053;-83
2023/12/22 04:16:57;;;;;;;11.87;1.30;;;3.90;99.90;;;;;;5002020;28;20044;-84
2023/12/22 04:19:22;;;;;;;3.27;0.93;;;3.90;99.90;;;;;;5001720;28;20064;-84
2023/12/22 04:21:48;;;;;;;3.13;0.93;;;4.00;99.90;;;;;;5002845;28;20026;-84
2023/12/22 04:24:14;;;;;;;3.07;1.00;;;4.10;99.90;;;;;;5001237;28;20033;-84
2023/12/22 04:26:40;;;;;;;1.77;0.90;;;4.10;99.90;;;;;;5002051;28;20211;-85
2023/12/22 04:29:05;;;;;;;3.00;0.80;;;4.20;99.90;;;;;;5002565;28;20037;-84
2023/12/22 04:31:31;;;;;;;4.93;1.10;;;4.20;99.90;;;;;;5002590;28;20037;-84
2023/12/22 04:33:56;;;;;;;3.63;1.10;;;4.20;99.90;;;;;;5001775;28;20944;-83
2023/12/22 04:36:22;;;;;;;2.37;0.80;;;4.30;99.90;;;;;;5002596;28;20048;-84
2023/12/22 04:38:47;;;;;;;2.50;0.83;;;4.30;99.90;;;;;;5004415;28;20062;-85
2023/12/22 04:41:13;;;;;;;1.73;0.60;;;4.30;99.90;;;;;;5003598;28;21344;-84
2023/12/22 04:43:38;;;;;;;2.73;0.90;;;4.30;99.90;;;;;;5004227;28;20060;-86
2023/12/22 04:46:04;;;;;;;3.53;0.87;;;4.30;99.90;;;;;;5002623;28;20030;-85
2023/12/22 04:48:29;;;;;;;3.07;1.00;;;4.30;99.90;;;;;;5002583;28;20022;-84
2023/12/22 04:50:55;;;;;;;3.63;1.00;;;4.40;99.90;;;;;;5003413;28;20034;-84
2023/12/22 04:53:20;;;;;;;5.23;1.37;;;4.40;99.90;;;;;;5003499;28;20673;-83
2023/12/22 04:55:46;;;;;;;2.23;1.00;;;4.50;99.90;;;;;;5003522;28;20034;-84
2023/12/22 04:58:11;;;;;;;4.20;1.13;;;4.60;99.90;;;;;;5003838;28;20026;-84
2023/12/22 05:00:37;;;;;;;3.37;1.17;;;4.70;99.90;;;;;;5004215;28;20111;-84
2023/12/22 05:03:03;;;;;;;3.67;1.13;;;4.70;99.90;;;;;;5004119;28;20050;-84
2023/12/22 05:05:29;;;;;;;4.57;1.50;;;4.70;99.90;;;;;;5002241;28;20084;-83
2023/12/22 05:07:54;;;;;;;4.83;1.00;;;4.80;99.90;;;;;;5003374;28;20974;-84
2023/12/22 05:10:20;;;;;;;3.07;1.13;;;4.80;99.90;;;;;;5004380;28;20034;-85
2023/12/22 05:12:45;;;;;;;3.00;1.30;;;4.90;99.90;;;;;;5003588;28;20026;-84
2023/12/22 05:15:11;;;;;;;3.90;1.20;;;4.90;99.90;;;;;;5003750;28;20035;-85
2023/12/22 05:17:36;;;;;;;1.80;1.00;;;5.00;99.90;;;;;;5001351;28;20116;-84
2023/12/22 05:20:02;;;;;;;2.40;1.03;;;5.00;99.90;;;;;;5002966;28;20404;-86
2023/12/22 05:22:29;;;;;;;3.00;1.07;;;5.10;99.90;;;;;;5002606;28;20033;-85
2023/12/22 05:24:55;;;;;;;7.03;1.47;;;5.20;99.90;;;;;;5003688;28;20033;-86
2023/12/22 05:27:21;;;;;;;2.03;0.90;;;5.30;99.90;;;;;;5002597;28;20041;-86
2023/12/22 05:29:47;;;;;;;4.07;1.10;;;5.30;99.90;;;;;;5008001;28;20239;-85
2023/12/22 05:32:12;;;;;;;2.40;0.97;;;5.30;99.90;;;;;;5007694;28;20034;-86
2023/12/22 05:34:39;;;;;;;4.57;1.30;;;5.30;99.90;;;;;;5001844;28;20026;-85
2023/12/22 05:37:04;;;;;;;2.70;0.83;;;5.30;99.90;;;;;;5005498;28;20040;-84
2023/12/22 05:39:30;;;;;;;4.67;1.20;;;5.40;99.90;;;;;;5011597;28;20042;-85
2023/12/22 05:41:55;;;;;;;4.83;1.30;;;5.50;99.90;;;;;;5005563;28;20475;-90
2023/12/22 05:44:22;;;;;;;6.40;1.27;;;5.40;99.90;;;;;;5005716;28;20037;-85
2023/12/22 05:46:47;;;;;;;5.37;1.90;;;5.40;99.90;;;;;;5007436;28;20030;-84
2023/12/22 05:49:13;;;;;;;6.40;1.33;;;5.30;99.90;;;;;;5007986;28;20811;-85
2023/12/22 05:51:39;;;;;;;1.87;1.07;;;5.30;99.90;;;;;;5005676;28;20589;-84
2023/12/22 05:54:08;;;;;;;3.17;1.20;;;5.10;99.90;;;;;;5002087;28;20034;-86
2023/12/22 05:56:34;;;;;;;1.50;0.97;;;5.10;99.90;;;;;;4989462;28;20776;-84
2023/12/22 05:58:59;;;;;;;3.07;1.10;;;5.00;99.90;;;;;;5004967;28;20105;-85
2023/12/22 06:01:25;;;;;;;4.57;1.70;;;4.90;99.90;;;;;;5007647;28;20022;-85
2023/12/22 06:03:50;;;;;;;1.57;0.90;;;4.70;99.90;;;;;;5009977;28;20102;-84
2023/12/22 06:06:16;;;;;;;1.83;0.90;;;4.70;99.90;;;;;;5009419;28;20033;-84
2023/12/22 06:08:42;;;;;;;2.97;1.00;;;4.60;99.90;;;;;;5009208;28;20380;-83
2023/12/22 06:11:07;;;;;;;2.83;0.90;;;4.50;99.90;;;;;;5008348;28;20041;-85
2023/12/22 06:13:33;;;;;;;7.67;1.50;;;4.50;99.90;;;;;;5008207;28;20036;-84
2023/12/22 06:15:59;;;;;;;5.53;1.20;;;4.50;99.90;;;;;;4986492;28;20121;-84
2023/12/22 06:18:24;;;;;;;2.13;1.00;;;4.40;99.90;;;;;;5005313;28;20169;-85
2023/12/22 06:20:50;;;;;;;4.27;1.00;;;4.30;99.90;;;;;;5007170;28;20038;-84
2023/12/22 06:23:15;;;;;;;4.80;1.03;;;4.30;99.90;;;;;;5006047;28;20127;-85
2023/12/22 06:25:41;;;;;;;2.43;1.10;;;4.30;99.90;;;;;;5004541;28;20042;-84
2023/12/22 06:28:06;;;;;;;2.27;1.00;;;4.30;99.90;;;;;;5004609;28;20037;-87
2023/12/22 06:30:32;;;;;;;4.27;1.07;;;4.30;99.90;;;;;;5005324;28;20022;-84
2023/12/22 06:32:58;;;;;;;6.13;1.23;;;4.30;99.90;;;;;;5005944;28;20053;-84
2023/12/22 06:35:25;;;;;;;7.80;2.13;;;4.30;99.90;;;;;;5006049;28;20626;-84
2023/12/22 06:37:51;;;;;;;2.27;1.13;;;4.30;99.90;;;;;;5008739;28;20549;-85
2023/12/22 06:40:18;;;;;;;9.03;1.50;;;4.30;99.90;;;;;;5008947;28;20038;-85
2023/12/22 06:42:44;;;;;;;6.07;1.47;;;4.40;99.90;;;;;;5006990;28;20042;-85
2023/12/22 06:45:10;;;;;;;4.53;1.63;;;4.60;99.90;;;;;;5006789;28;20027;-88
2023/12/22 06:47:36;;;;;;;4.43;1.40;;;4.70;99.90;;;;;;5006031;28;20148;-84
2023/12/22 06:50:01;;;;;;;4.03;1.37;;;4.80;99.90;;;;;;5006757;28;20805;-85
2023/12/22 06:52:27;;;;;;;6.63;1.57;;;5.00;99.90;;;;;;5005400;28;20046;-85
2023/12/22 06:54:52;;;;;;;5.67;1.60;;;5.10;99.90;;;;;;4987761;28;21159;-85
2023/12/22 06:57:18;;;;;;;4.77;1.83;;;5.10;99.90;;;;;;4989068;28;20030;-87
2023/12/22 06:59:43;;;;;;;3.83;1.30;;;5.10;99.90;;;;;;5007681;28;20018;-86
2023/12/22 07:02:09;;;;;;;5.53;1.30;;;5.20;99.90;;;;;;5004007;28;20033;-85
2023/12/22 07:05:23;;;;;;;5.87;1.20;;;5.20;99.90;;;;;;5004134;28;20047;-86
2023/12/22 07:07:48;;;;;;;6.10;1.37;;;5.20;99.90;;;;;;5003802;28;20049;-84
2023/12/22 07:10:14;;;;;;;6.47;1.20;;;5.30;99.90;;;;;;5005502;28;20492;-84
2023/12/22 07:12:39;;;;;;;2.77;1.20;;;5.40;99.90;;;;;;5005084;28;20170;-84
2023/12/22 07:15:08;;;;;;;5.00;1.40;;;5.30;99.90;;;;;;5002679;28;20121;-85
2023/12/22 07:17:34;;;;;;;8.20;1.77;;;5.30;99.90;;;;;;5004608;28;20030;-85
2023/12/22 07:20:02;;;;;;;6.83;1.77;;;5.30;99.90;;;;;;5000728;28;20084;-84
2023/12/22 07:22:28;;;;;;;5.27;1.50;;;5.20;99.90;;;;;;5004810;28;20106;-85
2023/12/22 07:24:55;;;;;;;7.93;1.83;;;5.30;99.90;;;;;;5004843;28;20030;-85
2023/12/22 07:27:21;;;;;;;8.70;1.70;;;5.20;99.90;;;;;;5003769;28;20036;-88
2023/12/22 07:29:46;;;;;;;9.10;1.60;;;5.10;99.90;;;;;;5005095;28;20033;-86
2023/12/22 07:32:12;;;;;;;4.53;1.60;;;5.10;99.90;;;;;;5004621;28;20034;-86
2023/12/22 07:34:38;;;;;;;5.03;1.27;;;5.00;99.90;;;;;;5004852;28;20030;-85
2023/12/22 07:37:09;;;;;;;8.03;2.20;;;4.90;99.90;;;;;;5003781;28;20530;-85
2023/12/22 07:39:34;;;;;;;3.43;1.27;;;4.80;99.90;;;;;;5006212;28;20037;-86
2023/12/22 07:42:00;;;;;;;4.63;1.47;;;4.80;99.90;;;;;;5005802;28;20068;-86
2023/12/22 07:44:25;;;;;;;7.70;1.80;;;4.90;99.90;;;;;;5006567;28;20053;-85
2023/12/22 07:46:58;;;;;;;4.87;1.40;;;5.00;99.90;;;;;;5008891;28;20038;-88
2023/12/22 07:49:24;;;;;;;10.10;2.10;;;5.10;99.90;;;;;;5006444;28;20034;-86
2023/12/22 07:51:51;;;;;;;4.60;2.00;;;5.10;99.90;;;;;;5007488;28;20877;-87
2023/12/22 07:54:17;;;;;;;7.87;2.10;;;5.20;99.90;;;;;;5008457;28;20116;-86
2023/12/22 07:56:42;;;;;;;5.43;2.33;;;5.20;99.90;;;;;;5007795;28;20127;-85
2023/12/22 07:59:08;;;;;;;5.97;1.80;;;5.30;99.90;;;;;;4986670;28;20812;-85
2023/12/22 08:01:33;;;;;;;5.90;1.50;;;5.40;99.90;;;;;;5003585;28;20018;-85
2023/12/22 08:03:59;;;;;;;7.87;1.50;;;5.60;99.90;;;;;;4988955;28;20033;-87
2023/12/22 08:06:24;;;;;;;6.07;1.47;;;5.60;99.90;;;;;;4988292;28;20087;-85
2023/12/22 08:08:50;;;;;;;4.83;1.60;;;5.70;99.90;;;;;;5006072;28;20051;-85
2023/12/22 08:11:15;;;;;;;2.53;1.10;;;5.70;99.90;;;;;;5008766;28;20041;-88
2023/12/22 08:13:41;;;;;;;4.40;1.13;;;5.70;99.90;;;;;;5008502;28;20112;-84
2023/12/22 08:16:06;;;;;;;2.77;1.10;;;5.50;99.90;;;;;;5003516;28;20038;-85
2023/12/22 08:18:32;;;;;;;3.80;1.13;;;5.30;99.90;;;;;;5003326;28;20041;-85
2023/12/22 08:20:58;;;;;;;6.77;2.70;;;5.10;99.90;;;;;;5002632;28;20084;-85
2023/12/22 08:23:23;;;;;;;4.97;1.80;;;5.00;99.90;;;;;;4985124;28;20032;-85
2023/12/22 08:25:49;;;;;;;6.30;1.80;;;4.80;99.90;;;;;;5003233;28;20040;-84
2023/12/22 08:28:14;;;;;;;8.33;1.70;;;4.80;99.90;;;;;;5003301;28;20030;-87
2023/12/22 08:30:40;;;;;;;6.20;1.90;;;4.80;99.90;;;;;;5002865;28;20041;-86
2023/12/22 08:33:06;;;;;;;5.73;1.60;;;4.80;99.90;;;;;;5000513;28;20056;-86
2023/12/22 08:35:31;;;;;;;7.77;1.83;;;4.70;99.90;;;;;;5001527;28;20025;-85
2023/12/22 08:37:57;;;;;;;8.77;1.97;;;4.70;99.90;;;;;;4984716;28;20029;-85
2023/12/22 08:40:25;;;;;;;4.60;1.90;;;4.80;99.90;;;;;;5003415;28;20686;-86
2023/12/22 08:42:54;;;;;;;5.30;1.77;;;4.80;99.90;;;;;;5003736;28;20054;-86
2023/12/22 08:45:21;;;;;;;4.60;1.30;;;5.00;99.90;;;;;;4985368;28;20092;-89
2023/12/22 08:47:46;;;;;;;7.27;1.50;;;5.20;99.90;;;;;;5002862;28;20052;-87
2023/12/22 08:50:12;;;;;;;8.53;1.50;;;5.20;99.90;;;;;;5003678;28;20030;-88
2023/12/22 08:52:38;;;;;;;4.73;1.30;;;5.20;99.90;;;;;;4984547;28;20091;-86
2023/12/22 08:55:05;;;;;;;6.10;2.50;;;5.20;99.90;;;;;;5002030;28;20049;-89
2023/12/22 08:57:31;;;;;;;4.77;1.27;;;5.30;99.90;;;;;;5000003;28;20041;-85
2023/12/22 08:59:57;;;;;;;4.83;1.40;;;5.50;99.90;;;;;;5001199;28;20033;-85
2023/12/22 09:02:23;;;;;;;7.10;2.23;;;5.50;99.90;;;;;;4994532;28;20230;-84
2023/12/22 09:04:48;;;;;;;5.23;1.90;;;5.50;99.90;;;;;;5000773;28;20114;-86
2023/12/22 09:07:14;;;;;;;8.67;2.30;;;5.60;99.90;;;;;;4999355;28;20030;-87
2023/12/22 09:09:40;;;;;;;7.00;1.83;;;5.60;99.90;;;;;;4999916;28;20037;-86
2023/12/22 09:12:05;;;;;;;6.40;1.97;;;5.70;99.90;;;;;;5000279;28;20702;-87
2023/12/22 09:14:31;;;;;;;8.13;1.50;;;5.70;99.90;;;;;;5000127;28;20046;-85
2023/12/22 09:16:57;;;;;;;4.40;1.50;;;5.80;99.90;;;;;;4996770;28;20042;-85
2023/12/22 09:19:22;;;;;;;7.53;2.03;;;5.80;99.90;;;;;;4999395;28;20072;-85
2023/12/22 09:21:48;;;;;;;7.83;2.23;;;5.80;99.90;;;;;;4999949;28;20048;-85
2023/12/22 09:24:16;;;;;;;6.50;1.93;;;5.80;99.90;;;;;;5000549;28;20038;-87
2023/12/22 09:26:41;;;;;;;8.23;1.73;;;5.90;99.90;;;;;;4979961;28;20420;-84
2023/12/22 09:29:07;;;;;;;12.63;3.30;;;5.80;99.90;;;;;;5001774;28;20037;-86
2023/12/22 09:31:32;;;;;;;6.17;1.50;;;5.90;99.90;;;;;;5000452;28;20037;-86
2023/12/22 09:33:58;;;;;;;4.57;1.40;;;5.90;99.90;;;;;;4983242;28;20037;-85
2023/12/22 09:36:24;;;;;;;5.80;1.67;;;6.10;99.90;;;;;;4999682;28;20069;-86
2023/12/22 09:38:49;;;;;;;2.70;1.10;;;6.00;99.90;;;;;;5002284;28;20022;-84
2023/12/22 09:41:15;;;;;;;5.07;1.20;;;6.00;99.90;;;;;;4983146;28;20037;-85
2023/12/22 09:43:44;;;;;;;7.57;1.40;;;6.00;99.90;;;;;;5001942;28;20034;-86
2023/12/22 09:46:11;;;;;;;4.50;1.43;;;6.00;99.90;;;;;;5000903;28;20045;-85
2023/12/22 09:48:39;;;;;;;2.13;1.17;;;6.00;99.90;;;;;;5001246;28;20574;-85
2023/12/22 09:51:06;;;;;;;3.10;1.20;;;6.00;99.90;;;;;;5001924;28;20040;-86
2023/12/22 09:53:34;;;;;;;3.73;1.17;;;5.90;99.90;;;;;;5000633;28;20577;-85
2023/12/22 09:56:00;;;;;;;2.93;1.00;;;5.90;99.90;;;;;;5001532;28;20034;-85
2023/12/22 09:58:26;;;;;;;2.27;0.97;;;5.70;99.90;;;;;;5000270;28;20460;-85
2023/12/22 10:00:53;;;;;;;4.37;1.20;;;5.70;99.90;;;;;;5002878;28;20052;-84
2023/12/22 10:03:20;;;;;;;3.27;0.97;;;5.50;99.90;;;;;;5002694;28;21072;-85
2023/12/22 10:05:46;;;;;;;2.67;1.00;;;5.50;99.90;;;;;;5000102;28;20780;-85
2023/12/22 10:08:12;;;;;;;3.30;1.00;;;5.20;99.90;;;;;;5000028;28;20028;-84
2023/12/22 10:10:41;;;;;;;1.67;0.90;;;5.10;99.90;;;;;;5000019;28;20049;-86
2023/12/22 10:13:09;;;;;;;1.43;0.90;;;4.90;99.90;;;;;;5000586;28;20035;-86
2023/12/22 10:15:41;;;;;;;1.37;0.80;;;4.70;99.90;;;;;;4998850;28;20037;-84
2023/12/22 10:18:06;;;;;;;4.80;1.03;;;4.50;99.90;;;;;;4981825;28;20053;-84
2023/12/22 10:20:32;;;;;;;0.77;0.70;;;4.50;99.90;;;;;;5001266;28;20033;-84
2023/12/22 10:22:58;;;;;;;1.27;0.90;;;4.40;99.90;;;;;;5002151;28;20437;-84
2023/12/22 10:25:32;;;;;;;1.70;0.90;;;4.30;99.90;;;;;;5003187;28;20064;-84
2023/12/22 10:27:58;;;;;;;3.83;1.00;;;4.30;99.90;;;;;;5002908;28;20081;-85
2023/12/22 10:30:27;;;;;;;2.40;1.20;;;4.20;99.90;;;;;;5002092;28;20042;-85
2023/12/22 10:32:53;;;;;;;4.63;1.10;;;4.10;99.90;;;;;;5002997;28;20034;-84
2023/12/22 10:35:20;;;;;;;3.53;1.30;;;4.00;99.90;;;;;;5002065;28;20039;-84
2023/12/22 10:37:46;;;;;;;3.03;1.13;;;4.00;99.90;;;;;;4999406;28;20029;-83
2023/12/22 10:40:13;;;;;;;3.80;1.10;;;4.00;99.90;;;;;;5000062;28;20045;-83
2023/12/22 10:42:40;;;;;;;3.70;1.33;;;4.00;99.90;;;;;;4997464;28;20485;-84
2023/12/22 10:45:07;;;;;;;6.97;1.47;;;3.90;99.90;;;;;;4999907;28;21323;-83
2023/12/22 10:47:32;;;;;;;4.17;1.40;;;3.90;99.90;;;;;;4999376;28;20078;-83
2023/12/22 10:50:02;;;;;;;2.87;1.30;;;4.00;99.90;;;;;;5000507;28;20088;-84
2023/12/22 10:52:29;;;;;;;3.27;1.60;;;4.00;99.90;;;;;;4991689;28;20424;-84
2023/12/22 10:54:57;;;;;;;6.63;1.87;;;4.00;99.90;;;;;;5004545;28;20033;-85
2023/12/22 10:57:23;;;;;;;5.07;1.47;;;4.10;99.90;;;;;;5002582;28;20133;-84
2023/12/22 10:59:48;;;;;;;6.27;1.40;;;4.10;99.90;;;;;;5003162;28;20097;-83
2023/12/22 11:02:20;;;;;;;10.83;2.07;;;4.20;99.90;;;;;;5002971;28;20061;-84
2023/12/22 11:05:00;;;;;;;5.07;1.80;;;4.30;99.90;;;;;;5003740;28;20076;-84
2023/12/22 11:07:28;;;;;;;6.70;1.40;;;4.40;99.90;;;;;;5004833;28;20037;-87
2023/12/22 11:09:57;;;;;;;5.90;2.27;;;4.70;99.90;;;;;;5004618;28;20054;-84
2023/12/22 11:12:24;;;;;;;5.50;1.43;;;4.80;99.90;;;;;;5004372;28;20040;-83
2023/12/22 11:14:52;;;;;;;2.83;1.07;;;5.00;99.90;;;;;;5005002;28;20030;-82
2023/12/22 11:17:22;;;;;;;3.47;1.30;;;5.10;99.90;;;;;;5005841;28;20033;-82
2023/12/22 11:19:53;;;;;;;7.40;1.67;;;5.20;99.90;;;;;;5004132;28;20491;-82
2023/12/22 11:22:21;;;;;;;5.40;1.87;;;5.30;99.90;;;;;;5005930;28;20029;-83
2023/12/22 11:24:48;;;;;;;4.60;1.30;;;5.30;99.90;;;;;;5005802;28;20065;-86
2023/12/22 11:27:19;;;;;;;6.13;1.63;;;5.30;99.90;;;;;;5004752;28;20121;-83
2023/12/22 11:29:51;;;;;;;8.53;1.57;;;5.40;99.90;;;;;;5006989;28;20023;-82
2023/12/22 11:32:19;;;;;;;4.33;1.10;;;5.40;99.90;;;;;;5005658;28;20032;-83
2023/12/22 11:34:47;;;;;;;5.77;1.43;;;5.40;99.90;;;;;;5001261;28;20037;-83
2023/12/22 11:37:14;;;;;;;3.17;1.30;;;5.40;99.90;;;;;;5004901;28;20085;-83
2023/12/22 11:39:41;;;;;;;4.37;1.77;;;5.40;99.90;;;;;;5004685;28;20026;-84
2023/12/22 11:42:15;;;;;;;3.20;1.40;;;5.40;99.90;;;;;;5005877;28;20046;-84
2023/12/22 11:44:41;;;;;;;4.00;1.30;;;5.50;99.90;;;;;;5006796;28;20568;-82
2023/12/22 11:47:13;;;;;;;7.57;1.50;;;5.50;99.90;;;;;;5004414;28;20077;-82
2023/12/22 11:49:38;;;;;;;3.40;1.13;;;5.50;99.90;;;;;;5006568;28;20033;-82
2023/12/22 11:52:14;;;;;;;3.60;1.37;;;5.50;99.90;;;;;;5003742;28;20026;-83
2023/12/22 11:54:51;;;;;;;4.47;1.40;;;5.50;99.90;;;;;;5005224;28;20061;-85
2023/12/22 11:57:37;;;;;;;4.33;1.33;;;5.40;99.90;;;;;;5004155;28;20105;-83
2023/12/22 12:00:31;;;;;;;5.00;1.47;;;5.40;99.90;;;;;;5003996;28;20068;-83
2023/12/22 12:02:57;;;;;;;5.37;1.47;;;5.40;99.90;;;;;;5005233;28;20041;-85
2023/12/22 12:05:23;;;;;;;2.40;1.10;;;5.40;99.90;;;;;;5005970;28;20041;-83
2023/12/22 12:07:49;;;;;;;3.10;1.30;;;5.40;99.90;;;;;;4985284;28;20019;-84
2023/12/22 12:10:37;;;;;;;3.70;1.27;;;5.40;99.90;;;;;;5002521;28;20033;-82
2023/12/22 12:13:15;;;;;;;2.70;1.10;;;5.40;99.90;;;;;;4986176;28;20064;-82
2023/12/22 12:15:42;;;;;;;2.83;1.13;;;5.50;99.90;;;;;;5002627;28;20030;-85
2023/12/22 12:18:09;;;;;;;6.67;1.33;;;5.50;99.90;;;;;;4999745;28;20765;-72
2023/12/22 12:20:34;;;;;;;4.53;1.60;;;5.50;99.90;;;;;;4993283;28;20041;-70
2023/12/22 12:23:04;;;;;;;5.40;1.30;;;5.50;99.90;;;;;;4996574;28;20117;-85
2023/12/22 12:25:32;;;;;;;5.27;1.13;;;5.50;99.90;;;;;;5007563;28;20033;-84
2023/12/22 12:28:02;;;;;;;3.70;1.40;;;5.60;99.90;;;;;;4985074;28;20035;-85
2023/12/22 12:30:27;;;;;;;5.13;1.40;;;5.60;99.90;;;;;;5001930;28;20053;-85
2023/12/22 12:32:54;;;;;;;4.77;1.47;;;5.60;99.90;;;;;;5004042;28;20026;-84
2023/12/22 12:35:23;;;;;;;3.17;1.70;;;5.60;99.90;;;;;;5005306;28;20046;-83
2023/12/22 12:37:49;;;;;;;6.50;1.63;;;5.70;99.90;;;;;;5009548;28;20037;-83
2023/12/22 12:40:17;;;;;;;3.90;1.27;;;5.70;99.90;;;;;;5009094;28;20061;-84
2023/12/22 12:42:43;;;;;;;3.27;1.20;;;5.70;99.90;;;;;;4992233;28;20045;-84
2023/12/22 12:45:09;;;;;;;5.77;1.33;;;5.80;99.90;;;;;;5007297;28;20030;-84
2023/12/22 12:47:35;;;;;;;5.03;1.47;;;5.70;99.90;;;;;;5006992;28;20049;-84
2023/12/22 12:50:01;;;;;;;2.77;1.30;;;5.80;99.90;;;;;;5010155;28;20029;-84
2023/12/22 12:52:27;;;;;;;7.00;1.70;;;5.80;99.90;;;;;;5006614;28;20072;-84
2023/12/22 12:54:53;;;;;;;4.90;1.53;;;5.70;99.90;;;;;;5007535;28;20049;-84